Time;durP1;ratioP1;P1;durP2;ratioP2;P2;SDS_P1;SDS_P2;PMS_P1;PMS_P2;Temp;Humidity;BMP_temperature;BMP_pressure;BME280_temperature;BME280_humidity;BME280_pressure;Samples;Min_cycle;Max_cycle;Signal;HPM_P1;HPM_P2
2021/03/05 00:01:29;;;;;;;78.20;34.95;;;;;;;15.66;35.88;97845.44;5025906;28;20026;-84
2021/03/05 00:03:55;;;;;;;68.80;32.97;;;;;;;15.50;35.72;97853.19;5023174;28;20025;-83
2021/03/05 00:06:21;;;;;;;73.47;35.08;;;;;;;15.09;37.06;97855.16;5019240;28;20080;-84
2021/03/05 00:08:47;;;;;;;73.68;36.08;;;;;;;15.62;36.26;97847.38;5022719;28;20433;-84
2021/03/05 00:11:14;;;;;;;64.32;33.33;;;;;;;16.25;35.08;97842.28;5022530;28;20088;-84
2021/03/05 00:13:40;;;;;;;70.85;34.67;;;;;;;15.87;35.48;97846.38;5020892;28;20077;-84
2021/03/05 00:16:06;;;;;;;71.97;35.38;;;;;;;14.17;38.73;97855.94;5019863;28;20021;-84
2021/03/05 00:18:32;;;;;;;64.95;32.10;;;;;;;13.97;38.90;97852.53;5020434;28;20034;-84
2021/03/05 00:20:59;;;;;;;62.13;30.20;;;;;;;13.85;39.15;97859.06;5022790;28;20029;-84
2021/03/05 00:23:25;;;;;;;55.83;29.83;;;;;;;14.12;38.33;97854.31;5022635;28;20079;-84
2021/03/05 00:25:51;;;;;;;54.08;27.10;;;;;;;13.92;38.71;97861.13;5018313;28;20485;-84
2021/03/05 00:28:18;;;;;;;59.65;29.45;;;;;;;14.11;38.35;97869.28;5025278;28;20393;-84
2021/03/05 00:30:44;;;;;;;59.25;30.63;;;;;;;14.24;37.67;97864.34;5022695;28;20084;-84
2021/03/05 00:33:10;;;;;;;63.45;30.80;;;;;;;14.58;36.76;97865.22;5020439;28;20125;-84
2021/03/05 00:35:37;;;;;;;54.40;27.83;;;;;;;15.79;34.57;97858.59;5018204;28;20033;-84
2021/03/05 00:38:03;;;;;;;54.13;26.38;;;;;;;15.62;34.72;97864.75;5022449;28;20367;-84
2021/03/05 00:40:29;;;;;;;58.47;29.60;;;;;;;16.06;33.65;97855.59;5023551;28;20092;-84
2021/03/05 00:42:55;;;;;;;51.08;26.42;;;;;;;15.70;33.98;97849.81;5019070;28;20068;-84
2021/03/05 00:45:23;;;;;;;56.00;27.38;;;;;;;16.18;33.16;97842.22;5020725;28;20512;-83
2021/03/05 00:47:49;;;;;;;60.83;29.00;;;;;;;15.98;33.15;97848.44;5017500;28;20026;-84
2021/03/05 00:50:17;;;;;;;61.65;28.15;;;;;;;15.23;34.39;97855.28;5022455;28;20056;-84
2021/03/05 00:52:43;;;;;;;55.72;28.05;;;;;;;16.13;32.95;97839.03;5022361;28;20026;-83
2021/03/05 00:55:10;;;;;;;54.65;26.27;;;;;;;15.89;33.29;97843.25;5019710;28;20068;-84
2021/03/05 00:57:37;;;;;;;56.47;28.63;;;;;;;14.69;35.20;97844.03;5017623;28;20038;-84
2021/03/05 01:00:09;;;;;;;54.25;25.45;;;;;;;15.11;34.42;97852.78;5019419;28;20032;-84
2021/03/05 01:02:35;;;;;;;64.65;29.80;;;;;;;14.53;34.97;97850.56;5022355;28;20042;-84
2021/03/05 01:05:02;;;;;;;57.63;29.30;;;;;;;15.66;33.52;97846.22;5019004;28;20033;-84
2021/03/05 01:07:28;;;;;;;52.70;27.05;;;;;;;15.92;32.89;97842.44;5018564;28;20092;-84
2021/03/05 01:09:54;;;;;;;62.78;29.48;;;;;;;16.77;30.68;97840.97;5019215;28;20133;-84
2021/03/05 01:12:21;;;;;;;56.15;26.02;;;;;;;13.82;35.68;97845.19;5018389;28;20108;-84
2021/03/05 01:14:47;;;;;;;63.00;29.60;;;;;;;14.10;35.91;97842.03;5021045;28;20029;-84
2021/03/05 01:17:14;;;;;;;53.10;27.95;;;;;;;15.22;34.00;97845.41;5018173;28;20048;-84
2021/03/05 01:19:40;;;;;;;55.97;26.77;;;;;;;16.06;32.05;97838.97;5017330;28;20030;-84
2021/03/05 01:22:06;;;;;;;45.58;21.98;;;;;;;16.89;30.83;97837.84;5017435;28;20033;-84
2021/03/05 01:24:33;;;;;;;56.22;27.85;;;;;;;15.29;33.17;97839.13;5019338;28;20034;-84
2021/03/05 01:26:59;;;;;;;46.67;21.95;;;;;;;15.50;33.44;97847.66;5017777;28;20121;-84
2021/03/05 01:29:25;;;;;;;51.58;24.42;;;;;;;17.18;29.66;97842.25;5021673;28;20063;-84
2021/03/05 01:31:51;;;;;;;59.67;25.88;;;;;;;15.51;32.00;97847.28;5022531;28;20670;-84
2021/03/05 01:34:17;;;;;;;54.05;27.35;;;;;;;16.42;30.90;97841.56;5017520;28;20040;-84
2021/03/05 01:36:43;;;;;;;48.67;24.90;;;;;;;16.97;29.43;97850.53;5021722;28;20034;-85
2021/03/05 01:39:10;;;;;;;40.75;20.20;;;;;;;18.33;27.58;97850.19;5016821;28;20049;-84
2021/03/05 01:41:37;;;;;;;44.35;22.50;;;;;;;18.57;26.54;97857.69;5022830;28;20108;-84
2021/03/05 01:44:05;;;;;;;36.65;17.80;;;;;;;20.41;24.31;97854.44;5018925;28;20084;-83
2021/03/05 01:46:31;;;;;;;36.15;16.48;;;;;;;21.51;22.74;97848.25;5018273;28;20060;-83
2021/03/05 01:48:58;;;;;;;33.10;15.73;;;;;;;22.08;21.85;97842.56;5022353;28;20037;-83
2021/03/05 01:51:27;;;;;;;34.00;15.90;;;;;;;22.12;21.37;97835.69;5018927;28;20293;-83
2021/03/05 01:53:53;;;;;;;31.95;14.95;;;;;;;22.55;21.12;97844.88;5018623;28;20034;-83
2021/03/05 01:56:30;;;;;;;29.33;14.75;;;;;;;22.88;20.81;97845.81;5019438;28;20113;-83
2021/03/05 01:58:57;;;;;;;26.63;12.98;;;;;;;23.47;20.05;97847.78;5015102;28;20098;-83
2021/03/05 02:01:26;;;;;;;27.58;13.18;;;;;;;23.93;19.45;97847.44;5019246;28;20030;-83
2021/03/05 02:03:53;;;;;;;28.27;14.13;;;;;;;24.20;19.14;97841.59;5019116;28;20037;-83
2021/03/05 02:06:20;;;;;;;22.25;11.98;;;;;;;24.38;19.04;97833.47;5015681;28;20029;-83
2021/03/05 02:08:46;;;;;;;27.52;12.98;;;;;;;24.52;18.51;97833.09;5024190;28;20034;-83
2021/03/05 02:11:14;;;;;;;25.92;11.18;;;;;;;24.34;18.64;97850.41;5022675;28;20525;-84
2021/03/05 02:13:40;;;;;;;26.77;12.23;;;;;;;23.77;19.13;97844.66;5016349;28;20045;-83
2021/03/05 02:16:28;;;;;;;30.08;14.15;;;;;;;23.56;19.36;97845.16;5020221;28;20512;-84
2021/03/05 02:19:07;;;;;;;27.98;12.45;;;;;;;23.29;19.87;97839.75;5020604;28;20393;-83
2021/03/05 02:22:10;;;;;;;27.33;12.93;;;;;;;23.09;20.06;97845.38;5019930;28;20520;-83
2021/03/05 02:25:02;;;;;;;28.95;13.27;;;;;;;22.65;20.50;97843.91;5017380;28;20095;-84
2021/03/05 02:27:46;;;;;;;25.92;13.05;;;;;;;22.71;20.40;97838.56;5023214;28;20049;-84
2021/03/05 02:30:49;;;;;;;24.40;12.57;;;;;;;22.98;20.07;97849.63;5025102;28;20112;-85
2021/03/05 02:33:29;;;;;;;28.42;13.43;;;;;;;23.04;19.90;97839.50;5029662;28;20037;-84
2021/03/05 02:35:57;;;;;;;28.42;13.02;;;;;;;23.03;19.85;97840.72;5018972;28;20173;-84
2021/03/05 02:38:25;;;;;;;29.08;14.50;;;;;;;22.09;20.78;97839.34;5019180;28;20073;-84
2021/03/05 02:40:54;;;;;;;28.63;12.98;;;;;;;21.77;21.28;97841.88;5017883;28;20576;-84
2021/03/05 02:43:23;;;;;;;29.77;15.05;;;;;;;22.03;21.19;97846.66;5020525;28;20021;-84
2021/03/05 02:46:00;;;;;;;26.63;13.23;;;;;;;22.45;20.53;97842.28;5018661;28;20042;-85
2021/03/05 02:48:30;;;;;;;26.25;12.00;;;;;;;22.98;19.90;97839.22;5019270;28;20033;-84
2021/03/05 02:51:01;;;;;;;22.05;11.60;;;;;;;23.20;19.82;97845.94;5019480;28;20034;-84
2021/03/05 02:53:30;;;;;;;25.67;12.52;;;;;;;22.38;20.36;97848.00;5019614;28;20030;-85
2021/03/05 02:56:00;;;;;;;26.83;14.25;;;;;;;20.55;22.35;97851.50;5034500;28;20459;-84
2021/03/05 02:58:29;;;;;;;27.00;13.13;;;;;;;18.99;24.51;97860.28;5022240;28;20061;-85
2021/03/05 03:00:56;;;;;;;27.63;14.30;;;;;;;18.11;25.82;97868.88;5019344;28;20370;-85
2021/03/05 03:03:24;;;;;;;22.88;12.48;;;;;;;17.03;27.25;97860.06;5022042;28;20078;-84
2021/03/05 03:05:52;;;;;;;23.00;11.85;;;;;;;18.79;25.38;97863.94;5020935;28;20105;-85
2021/03/05 03:08:21;;;;;;;21.75;10.18;;;;;;;20.22;23.51;97860.63;5024725;28;20029;-85
2021/03/05 03:10:48;;;;;;;23.83;10.88;;;;;;;20.49;22.64;97862.31;5023818;28;20041;-85
2021/03/05 03:13:17;;;;;;;20.75;10.45;;;;;;;19.86;23.50;97854.56;5022819;28;20099;-85
2021/03/05 03:15:43;;;;;;;22.40;10.80;;;;;;;20.44;22.71;97854.41;5023214;28;20029;-84
2021/03/05 03:18:12;;;;;;;31.70;14.65;;;;;;;18.68;24.57;97858.44;5020563;28;20075;-84
2021/03/05 03:20:39;;;;;;;27.48;14.40;;;;;;;16.16;28.35;97854.88;5022917;28;20030;-84
2021/03/05 03:23:06;;;;;;;23.02;12.68;;;;;;;17.13;27.42;97850.16;5025292;28;20034;-85
2021/03/05 03:25:33;;;;;;;28.50;14.23;;;;;;;15.78;29.05;97862.53;5025051;28;20026;-84
2021/03/05 03:27:59;;;;;;;32.30;15.63;;;;;;;14.09;32.19;97863.34;5024072;28;20505;-84
2021/03/05 03:30:25;;;;;;;27.00;13.65;;;;;;;15.73;29.80;97853.78;5021671;28;20366;-84
2021/03/05 03:32:53;;;;;;;22.70;10.80;;;;;;;17.24;27.76;97856.53;5019302;28;20045;-84
2021/03/05 03:35:19;;;;;;;24.20;10.50;;;;;;;19.11;24.68;97859.03;5020400;28;20029;-84
2021/03/05 03:37:46;;;;;;;25.40;11.57;;;;;;;16.06;28.43;97863.91;5027603;28;20037;-85
2021/03/05 03:40:20;;;;;;;26.67;12.25;;;;;;;16.17;28.83;97870.31;5022846;28;20090;-84
2021/03/05 03:42:47;;;;;;;28.08;12.95;;;;;;;14.74;30.69;97871.34;5020998;28;20421;-84
2021/03/05 03:45:16;;;;;;;29.08;13.18;;;;;;;14.80;31.35;97869.81;5021062;28;20091;-84
2021/03/05 03:47:43;;;;;;;32.08;13.95;;;;;;;14.60;31.89;97869.19;5018508;28;20033;-84
2021/03/05 03:50:25;;;;;;;30.40;13.57;;;;;;;14.15;32.52;97866.56;5020133;28;20041;-84
2021/03/05 03:53:25;;;;;;;28.10;13.10;;;;;;;12.43;35.88;97876.91;5018624;28;20508;-84
2021/03/05 03:55:55;;;;;;;32.88;14.75;;;;;;;12.83;34.66;97873.78;5023607;28;20038;-84
2021/03/05 03:58:24;;;;;;;29.30;13.98;;;;;;;14.56;31.86;97879.41;5025731;28;20048;-85
2021/03/05 04:00:55;;;;;;;24.80;10.98;;;;;;;14.90;31.14;97871.91;5020549;28;20108;-84
2021/03/05 04:03:25;;;;;;;23.88;12.07;;;;;;;15.41;30.13;97881.16;5027612;28;20025;-84
2021/03/05 04:05:53;;;;;;;28.08;12.57;;;;;;;13.55;33.70;97882.19;5021011;28;20037;-84
2021/03/05 04:08:20;;;;;;;26.17;11.07;;;;;;;15.49;29.70;97876.50;5022028;28;20117;-85
2021/03/05 04:10:47;;;;;;;23.52;10.75;;;;;;;16.94;27.71;97870.69;5021516;28;20071;-85
2021/03/05 04:13:14;;;;;;;24.08;11.00;;;;;;;18.53;25.17;97868.81;5019653;28;20532;-85
2021/03/05 04:15:41;;;;;;;19.15;7.95;;;;;;;20.38;22.97;97875.59;5022387;28;20033;-85
2021/03/05 04:18:07;;;;;;;19.23;8.93;;;;;;;20.82;22.29;97871.91;5025294;28;20036;-85
2021/03/05 04:20:37;;;;;;;25.55;10.20;;;;;;;20.11;22.58;97887.78;5020019;28;20116;-85
2021/03/05 04:23:05;;;;;;;13.05;5.93;;;;;;;20.52;22.44;97881.00;5018507;28;20247;-85
2021/03/05 04:25:31;;;;;;;22.67;10.32;;;;;;;17.80;25.04;97894.69;5022224;28;20140;-85
2021/03/05 04:27:57;;;;;;;22.73;10.43;;;;;;;18.40;25.15;97892.66;5023790;28;20069;-85
2021/03/05 04:30:25;;;;;;;16.45;8.23;;;;;;;20.22;22.79;97899.66;5018430;28;20038;-85
2021/03/05 04:32:51;;;;;;;18.17;9.15;;;;;;;20.44;22.17;97903.81;5017934;28;20046;-85
2021/03/05 04:35:17;;;;;;;20.58;9.48;;;;;;;17.82;25.51;97906.19;5021295;28;20367;-85
2021/03/05 04:37:43;;;;;;;25.55;11.10;;;;;;;17.48;26.14;97913.28;5017578;28;20044;-85
2021/03/05 04:40:11;;;;;;;19.77;7.78;;;;;;;18.43;25.18;97916.88;5019419;28;20052;-85
2021/03/05 04:42:38;;;;;;;22.42;10.00;;;;;;;17.87;25.79;97914.94;5020928;28;20037;-85
2021/03/05 04:45:06;;;;;;;17.30;8.98;;;;;;;19.07;24.13;97922.25;5017936;28;20486;-85
2021/03/05 04:47:33;;;;;;;15.75;6.80;;;;;;;19.37;23.97;97916.19;5018035;28;20083;-85
2021/03/05 04:49:59;;;;;;;15.77;7.00;;;;;;;20.51;22.53;97909.34;5020911;28;20033;-85
2021/03/05 04:52:25;;;;;;;15.30;6.95;;;;;;;21.12;21.51;97910.25;5023298;28;20045;-86
2021/03/05 04:54:51;;;;;;;15.80;6.97;;;;;;;19.55;23.18;97912.09;5017801;28;20099;-86
2021/03/05 04:57:17;;;;;;;17.73;7.88;;;;;;;18.34;25.03;97918.47;5021852;28;20037;-86
2021/03/05 04:59:43;;;;;;;19.52;8.68;;;;;;;19.33;23.93;97910.59;5014799;28;20049;-85
2021/03/05 05:02:09;;;;;;;19.85;9.88;;;;;;;18.38;24.81;97913.69;5018354;28;20076;-85
2021/03/05 05:04:35;;;;;;;12.75;6.15;;;;;;;20.02;23.03;97920.91;5017542;28;20056;-86
2021/03/05 05:07:02;;;;;;;16.30;7.18;;;;;;;20.67;22.19;97915.94;5017654;28;20038;-87
2021/03/05 05:09:28;;;;;;;14.13;6.57;;;;;;;21.14;21.56;97914.19;5019127;28;20033;-86
2021/03/05 05:11:54;;;;;;;16.52;6.63;;;;;;;21.88;20.73;97917.97;5019681;28;20098;-86
2021/03/05 05:14:20;;;;;;;11.50;6.07;;;;;;;22.08;20.21;97918.06;5018735;28;20540;-86
2021/03/05 05:16:46;;;;;;;13.18;6.50;;;;;;;21.59;20.64;97913.97;5023384;28;20069;-86
2021/03/05 05:19:12;;;;;;;14.10;6.65;;;;;;;21.97;20.55;97919.00;5019156;28;20026;-86
2021/03/05 05:21:38;;;;;;;15.20;6.40;;;;;;;22.40;20.01;97918.31;5021187;28;20112;-85
2021/03/05 05:24:06;;;;;;;15.77;6.05;;;;;;;22.59;19.91;97918.31;5031844;28;20076;-85
2021/03/05 05:26:32;;;;;;;15.75;6.97;;;;;;;22.35;19.92;97911.19;5024775;28;20385;-86
2021/03/05 05:28:58;;;;;;;11.70;5.72;;;;;;;22.28;20.11;97919.72;5024775;28;20038;-86
2021/03/05 05:31:24;;;;;;;14.18;6.20;;;;;;;22.20;19.86;97917.44;5022639;28;20270;-85
2021/03/05 05:33:51;;;;;;;14.13;6.90;;;;;;;21.32;20.99;97919.56;5020511;28;20026;-86
2021/03/05 05:36:17;;;;;;;13.43;7.15;;;;;;;20.89;21.70;97924.84;5017586;28;20032;-84
2021/03/05 05:38:43;;;;;;;12.60;6.78;;;;;;;21.23;21.34;97925.66;5024104;28;20037;-85
2021/03/05 05:41:09;;;;;;;12.80;6.18;;;;;;;20.74;21.76;97926.22;5022506;28;20057;-85
2021/03/05 05:43:35;;;;;;;12.60;6.35;;;;;;;21.27;21.24;97925.59;5018297;28;20104;-85
2021/03/05 05:46:07;;;;;;;13.15;5.97;;;;;;;21.61;20.84;97920.72;5018865;28;20056;-85
2021/03/05 05:48:37;;;;;;;12.98;6.78;;;;;;;22.00;20.55;97920.19;5017501;28;20041;-86
2021/03/05 05:51:18;;;;;;;12.13;6.38;;;;;;;22.48;19.95;97919.75;5021961;28;20037;-85
2021/03/05 05:53:46;;;;;;;13.20;6.10;;;;;;;22.83;19.70;97915.50;5022176;28;20030;-84
2021/03/05 05:56:19;;;;;;;11.57;6.10;;;;;;;22.26;19.94;97919.34;5015681;28;20458;-84
2021/03/05 05:58:46;;;;;;;13.15;6.50;;;;;;;22.33;20.08;97929.63;5013550;28;20057;-87
2021/03/05 06:01:13;;;;;;;12.13;5.68;;;;;;;22.68;19.88;97934.59;5017805;28;20068;-89
2021/03/05 06:03:40;;;;;;;11.57;6.20;;;;;;;23.28;19.17;97931.41;5017857;28;20030;-87
2021/03/05 06:06:07;;;;;;;14.48;6.78;;;;;;;23.65;18.63;97935.03;5022731;28;20029;-86
2021/03/05 06:08:33;;;;;;;14.95;7.05;;;;;;;23.79;18.41;97932.69;5017647;28;20038;-87
2021/03/05 06:11:00;;;;;;;17.02;6.53;;;;;;;24.05;18.39;97937.28;5020528;28;20038;-86
2021/03/05 06:13:28;;;;;;;16.73;7.13;;;;;;;24.27;18.29;97942.41;5018925;28;20038;-86
2021/03/05 06:16:14;;;;;;;12.85;5.95;;;;;;;23.22;18.78;97932.34;5020385;28;20032;-86
2021/03/05 06:18:40;;;;;;;15.95;6.80;;;;;;;23.23;19.09;97945.13;5025728;28;20535;-87
2021/03/05 06:21:07;;;;;;;15.48;9.07;;;;;;;21.52;20.86;97942.03;5022328;28;20452;-87
2021/03/05 06:23:35;;;;;;;14.82;7.63;;;;;;;21.01;21.65;97943.03;5020375;28;20053;-87
2021/03/05 06:26:02;;;;;;;19.85;10.13;;;;;;;19.48;23.36;97953.91;5020282;28;20560;-86
2021/03/05 06:28:29;;;;;;;13.18;7.13;;;;;;;19.03;24.29;97963.22;5020577;28;20132;-86
2021/03/05 06:30:55;;;;;;;17.50;9.80;;;;;;;19.18;23.82;97959.97;5020893;28;20069;-83
2021/03/05 06:33:30;;;;;;;20.50;9.93;;;;;;;18.16;25.23;97976.81;5022770;28;20034;-86
2021/03/05 06:36:15;;;;;;;17.33;9.27;;;;;;;18.75;24.80;97974.41;5030674;28;20056;-86
2021/03/05 06:38:44;;;;;;;23.02;10.23;;;;;;;17.98;25.34;97976.03;5029274;28;20044;-86
2021/03/05 06:41:27;;;;;;;19.45;9.85;;;;;;;17.70;26.61;97982.34;5036790;28;20036;-86
2021/03/05 06:43:56;;;;;;;15.43;7.82;;;;;;;19.67;23.54;97981.25;5036880;28;20056;-86
2021/03/05 06:46:38;;;;;;;12.32;6.28;;;;;;;19.41;24.24;97994.91;5035826;28;20033;-86
2021/03/05 06:49:07;;;;;;;15.55;8.80;;;;;;;19.23;23.94;97998.50;5035710;28;20508;-86
2021/03/05 06:51:34;;;;;;;18.13;9.45;;;;;;;18.54;24.63;97998.28;5036729;28;20033;-86
2021/03/05 06:54:13;;;;;;;17.13;9.50;;;;;;;16.83;27.30;98002.97;5033941;28;20032;-85
2021/03/05 06:56:42;;;;;;;17.10;9.55;;;;;;;16.38;28.44;98008.97;5033924;28;20041;-86
2021/03/05 06:59:10;;;;;;;15.25;8.57;;;;;;;18.19;25.99;98012.16;5035697;28;20504;-86
2021/03/05 07:01:47;;;;;;;17.65;8.80;;;;;;;17.95;26.17;98015.69;5035159;28;20073;-86
2021/03/05 07:04:16;;;;;;;9.63;5.32;;;;;;;20.54;22.90;98020.03;5033817;28;20109;-86
2021/03/05 07:06:42;;;;;;;9.05;5.68;;;;;;;21.00;21.79;98016.84;5034725;28;20497;-87
2021/03/05 07:09:30;;;;;;;10.63;5.63;;;;;;;20.00;23.02;98024.41;5034497;28;20037;-87
2021/03/05 07:11:57;;;;;;;10.02;6.53;;;;;;;19.38;24.14;98024.34;5035602;28;20049;-87
2021/03/05 07:14:34;;;;;;;10.57;5.60;;;;;;;20.95;22.20;98022.88;5035073;28;20064;-87
2021/03/05 07:17:01;;;;;;;10.82;5.20;;;;;;;21.82;20.91;98017.47;5031407;28;20084;-87
2021/03/05 07:19:30;;;;;;;9.65;5.55;;;;;;;21.75;21.35;98020.34;5033454;28;20382;-86
2021/03/05 07:21:57;;;;;;;12.35;6.05;;;;;;;22.07;21.17;98025.50;5035963;28;20116;-87
2021/03/05 07:24:25;;;;;;;14.07;7.95;;;;;;;21.54;21.21;98021.41;5036169;28;20033;-87
2021/03/05 07:26:53;;;;;;;9.57;5.00;;;;;;;21.62;21.32;98025.69;5036200;28;20030;-86
2021/03/05 07:29:25;;;;;;;11.95;6.40;;;;;;;22.00;21.41;98023.63;5033926;28;20029;-87
2021/03/05 07:32:16;;;;;;;12.10;6.45;;;;;;;21.80;21.38;98022.66;5035842;28;20025;-87
2021/03/05 07:35:04;;;;;;;13.98;7.97;;;;;;;21.85;21.69;98028.59;5034639;28;20068;-87
2021/03/05 07:37:53;;;;;;;10.52;6.20;;;;;;;21.13;22.45;98026.28;5034239;28;20052;-87
2021/03/05 07:40:19;;;;;;;12.18;6.22;;;;;;;21.94;21.83;98036.47;5018183;28;20378;-87
2021/03/05 07:42:45;;;;;;;11.95;6.82;;;;;;;22.27;21.42;98030.00;5034034;28;20036;-87
2021/03/05 07:45:13;;;;;;;14.73;7.75;;;;;;;21.58;21.75;98041.72;5035646;28;20044;-87
2021/03/05 07:47:48;;;;;;;15.32;7.22;;;;;;;22.33;21.13;98036.69;5033328;28;20038;-86
2021/03/05 07:50:19;;;;;;;13.38;6.82;;;;;;;23.15;20.81;98044.53;5063707;28;20093;-86
2021/03/05 07:52:46;;;;;;;10.90;6.10;;;;;;;23.57;19.55;98048.53;5029646;28;20030;-87
2021/03/05 07:55:14;;;;;;;17.60;9.00;;;;;;;22.19;20.54;98047.31;5039723;28;20607;-86
2021/03/05 07:57:44;;;;;;;11.93;6.65;;;;;;;22.49;20.41;98050.03;5035402;28;20034;-87
2021/03/05 08:00:15;;;;;;;13.20;6.85;;;;;;;22.69;21.21;98048.91;5034920;28;20087;-87
2021/03/05 08:02:51;;;;;;;14.73;7.47;;;;;;;22.17;20.97;98049.75;5033814;28;20041;-87
2021/03/05 08:05:41;;;;;;;9.73;5.80;;;;;;;23.40;20.65;98053.25;5035090;28;20033;-87
2021/03/05 08:08:29;;;;;;;13.02;6.50;;;;;;;24.02;19.47;98061.56;5035375;28;20047;-87
2021/03/05 08:11:01;;;;;;;12.68;7.50;;;;;;;22.05;20.88;98059.50;5047884;28;20072;-88
2021/03/05 08:13:50;;;;;;;13.70;6.70;;;;;;;19.56;23.68;98069.59;5035108;28;20506;-88
2021/03/05 08:16:37;;;;;;;11.82;6.78;;;;;;;21.11;22.04;98068.59;5034835;28;20401;-88
2021/03/05 08:19:06;;;;;;;11.88;6.57;;;;;;;19.66;24.28;98073.56;5015792;28;20045;-88
2021/03/05 08:21:55;;;;;;;16.20;8.90;;;;;;;19.01;24.84;98088.81;5034223;28;20029;-87
2021/03/05 08:24:22;;;;;;;15.10;7.55;;;;;;;21.42;21.95;98079.81;5033527;28;20042;-87
2021/03/05 08:27:08;;;;;;;12.75;6.40;;;;;;;22.31;21.11;98077.50;5034504;28;20076;-88
2021/03/05 08:30:05;;;;;;;10.20;5.93;;;;;;;22.99;19.98;98078.78;5032299;28;20041;-88
2021/03/05 08:32:34;;;;;;;15.27;8.38;;;;;;;20.90;23.18;98095.88;5034929;28;20029;-88
2021/03/05 08:35:09;;;;;;;19.23;10.75;;;;;;;19.22;24.88;98102.72;5033578;28;20030;-88
2021/03/05 08:37:37;;;;;;;9.60;5.15;;;;;;;20.32;23.53;98096.72;5034930;28;20041;-88
2021/03/05 08:40:18;;;;;;;16.75;9.07;;;;;;;17.75;26.96;98101.38;5034677;28;20025;-87
2021/03/05 08:42:49;;;;;;;19.08;10.50;;;;;;;17.00;28.05;98104.91;5034768;28;20033;-87
2021/03/05 08:45:17;;;;;;;;;;;;;;;17.41;27.84;98102.75;5036600;28;20741;-87
2021/03/05 08:47:52;;;;;;;16.80;9.35;;;;;;;17.15;27.92;98109.34;5030900;28;19939;-87
2021/03/05 08:50:22;;;;;;;12.52;6.90;;;;;;;19.47;24.48;98097.09;5033110;28;20038;-87
2021/03/05 08:52:49;;;;;;;13.52;7.65;;;;;;;19.60;24.43;98105.81;5034651;28;20030;-87
2021/03/05 08:55:17;;;;;;;8.93;5.43;;;;;;;20.14;23.68;98113.50;5032947;28;20040;-87
2021/03/05 08:57:53;;;;;;;16.52;9.13;;;;;;;16.13;28.98;98127.03;5033412;28;20034;-87
2021/03/05 09:00:22;;;;;;;10.60;6.05;;;;;;;15.71;30.72;98130.13;5034044;28;20037;-87
2021/03/05 09:02:50;;;;;;;13.48;7.72;;;;;;;14.99;31.00;98137.78;5030747;28;20098;-87
2021/03/05 09:05:27;;;;;;;14.25;7.65;;;;;;;14.15;32.66;98145.41;5032114;28;20056;-86
2021/03/05 09:07:55;;;;;;;12.48;7.20;;;;;;;12.72;34.83;98159.22;5033488;28;20041;-86
2021/03/05 09:10:41;;;;;;;14.50;7.57;;;;;;;13.21;34.46;98156.06;5032456;28;20553;-87
2021/03/05 09:13:08;;;;;;;13.75;7.10;;;;;;;12.60;34.87;98166.78;5034074;28;20033;-86
2021/03/05 09:15:48;;;;;;;10.23;5.72;;;;;;;12.56;35.49;98166.69;5034139;28;20029;-86
2021/03/05 09:18:18;;;;;;;6.65;3.83;;;;;;;13.64;33.27;98153.88;5033992;28;20516;-87
2021/03/05 09:20:56;;;;;;;7.60;4.57;;;;;;;12.03;36.34;98172.75;5034251;28;20053;-86
2021/03/05 09:23:33;;;;;;;6.80;4.70;;;;;;;10.36;39.67;98164.06;5017654;28;20545;-86
2021/03/05 09:26:09;;;;;;;8.32;4.68;;;;;;;11.53;37.52;98176.78;5018244;28;20028;-86
2021/03/05 09:28:49;;;;;;;5.28;3.50;;;;;;;11.81;36.55;98176.06;5032378;28;20497;-86
2021/03/05 09:31:17;;;;;;;11.30;3.72;;;;;;;12.99;34.42;98172.09;5033775;28;20034;-86
2021/03/05 09:33:45;;;;;;;7.30;3.83;;;;;;;11.33;37.07;98196.22;5033463;28;20064;-86
2021/03/05 09:36:23;;;;;;;4.97;3.15;;;;;;;11.48;38.15;98182.53;5033130;28;20080;-86
2021/03/05 09:39:03;;;;;;;4.75;3.05;;;;;;;14.46;32.58;98178.38;5033319;28;20038;-86
2021/03/05 09:41:33;;;;;;;6.03;3.25;;;;;;;15.03;31.33;98186.44;5025219;28;20025;-86
2021/03/05 09:44:10;;;;;;;5.00;3.63;;;;;;;14.50;31.31;98196.59;5020160;28;20034;-86
2021/03/05 09:46:41;;;;;;;4.53;3.17;;;;;;;15.40;29.95;98192.16;5033698;28;20033;-86
2021/03/05 09:49:42;;;;;;;8.07;5.45;;;;;;;11.60;36.67;98209.19;5029305;28;20025;-85
2021/03/05 09:52:26;;;;;;;3.90;3.13;;;;;;;11.77;36.53;98207.00;4989788;28;20044;-85
2021/03/05 09:54:54;;;;;;;10.15;5.50;;;;;;;10.65;39.14;98217.97;5026506;28;20076;-86
2021/03/05 09:57:24;;;;;;;6.78;4.72;;;;;;;11.49;38.03;98211.63;5025934;28;20108;-86
2021/03/05 09:59:51;;;;;;;5.75;3.83;;;;;;;12.75;35.00;98218.31;5032894;28;20105;-86
2021/03/05 10:02:21;;;;;;;6.00;4.25;;;;;;;11.71;36.36;98215.84;5031547;28;20048;-86
2021/03/05 10:04:49;;;;;;;;;;;;;;;10.32;39.18;98219.97;5033939;28;20378;-86
2021/03/05 10:07:16;;;;;;;7.05;3.90;;;;;;;11.68;37.17;98216.53;5033226;28;20011;-86
2021/03/05 10:09:43;;;;;;;6.00;3.40;;;;;;;12.80;35.31;98227.13;5032983;28;20452;-86
2021/03/05 10:12:09;;;;;;;6.85;3.90;;;;;;;11.93;37.11;98228.25;5031579;28;20032;-86
2021/03/05 10:14:36;;;;;;;7.32;4.30;;;;;;;11.77;36.72;98223.50;5033150;28;20056;-85
2021/03/05 10:17:17;;;;;;;6.88;4.25;;;;;;;11.86;36.85;98236.31;5031813;28;20032;-85
2021/03/05 10:19:44;;;;;;;4.90;3.88;;;;;;;13.23;34.97;98250.25;5032566;28;20563;-86
2021/03/05 10:22:12;;;;;;;5.47;3.63;;;;;;;12.79;34.20;98233.75;5031431;28;20088;-85
2021/03/05 10:24:40;;;;;;;6.70;3.95;;;;;;;11.58;37.61;98250.78;5030166;28;20025;-85
2021/03/05 10:29:49;;;;;;;7.40;4.25;;;;;;;12.48;35.27;98250.28;5026953;28;20055;-85
2021/03/05 10:32:25;;;;;;;5.90;4.53;;;;;;;13.89;33.19;98250.94;5036378;28;20088;-85
2021/03/05 10:34:54;;;;;;;5.03;3.78;;;;;;;12.82;35.02;98260.63;5032816;28;20029;-84
2021/03/05 10:37:20;;;;;;;8.48;4.72;;;;;;;13.31;34.29;98263.03;5033510;28;20041;-85
2021/03/05 10:39:48;;;;;;;6.65;4.65;;;;;;;14.70;32.30;98260.09;5034962;28;20065;-85
2021/03/05 10:42:16;;;;;;;8.70;5.18;;;;;;;14.32;31.86;98264.53;5033078;28;20056;-86
2021/03/05 10:44:44;;;;;;;6.22;4.20;;;;;;;14.56;32.04;98260.66;5033371;28;20029;-85
2021/03/05 10:47:13;;;;;;;8.32;5.13;;;;;;;14.89;31.81;98269.13;5032501;28;20094;-86
2021/03/05 10:49:42;;;;;;;9.10;5.28;;;;;;;14.70;31.42;98269.19;5032486;28;20038;-86
2021/03/05 10:52:13;;;;;;;8.27;5.50;;;;;;;16.36;29.28;98275.31;5029299;28;20045;-86
2021/03/05 10:54:39;;;;;;;8.18;4.25;;;;;;;18.17;26.78;98275.75;5032021;28;20385;-86
2021/03/05 10:57:08;;;;;;;9.00;5.95;;;;;;;16.46;29.19;98282.16;5032577;28;20088;-87
2021/03/05 10:59:34;;;;;;;9.50;5.15;;;;;;;15.43;30.29;98287.41;5032495;28;20104;-87
2021/03/05 11:02:00;;;;;;;10.98;5.13;;;;;;;15.61;30.25;98283.78;5032878;28;20044;-87
2021/03/05 11:04:26;;;;;;;8.57;5.72;;;;;;;16.36;29.28;98285.63;5031431;28;20037;-86
2021/03/05 11:06:54;;;;;;;10.30;6.78;;;;;;;14.94;30.74;98290.94;5032374;28;20397;-87
2021/03/05 11:09:21;;;;;;;7.30;4.85;;;;;;;11.88;35.31;98291.78;5032423;28;20103;-86
2021/03/05 11:11:48;;;;;;;9.38;5.68;;;;;;;10.69;38.78;98303.22;5021013;28;20553;-86
2021/03/05 11:14:14;;;;;;;12.27;7.10;;;;;;;10.77;38.61;98300.38;5032546;28;20432;-85
2021/03/05 11:16:41;;;;;;;8.55;5.13;;;;;;;11.61;37.80;98302.34;5032667;28;20033;-85
2021/03/05 11:19:08;;;;;;;8.23;5.00;;;;;;;13.01;33.96;98301.25;5032763;28;20033;-85
2021/03/05 11:21:35;;;;;;;6.07;4.13;;;;;;;13.77;33.36;98306.25;5031118;28;20052;-86
2021/03/05 11:24:01;;;;;;;7.85;4.35;;;;;;;15.19;30.27;98294.94;5028930;28;20055;-86
2021/03/05 11:26:28;;;;;;;6.43;4.20;;;;;;;14.56;31.01;98301.28;5040075;28;20473;-86
2021/03/05 11:28:54;;;;;;;5.63;3.85;;;;;;;15.72;29.65;98317.16;5035917;28;20037;-87
2021/03/05 11:31:21;;;;;;;5.47;3.65;;;;;;;15.04;30.01;98298.63;5034721;28;20057;-87
2021/03/05 11:33:48;;;;;;;8.25;4.53;;;;;;;14.09;30.73;98307.78;5036033;28;20032;-87
2021/03/05 11:36:16;;;;;;;8.02;4.78;;;;;;;13.13;32.75;98324.06;5036368;28;20033;-87
2021/03/05 11:38:46;;;;;;;7.28;4.38;;;;;;;13.25;32.67;98331.44;5035933;28;20119;-88
2021/03/05 11:41:13;;;;;;;5.60;3.72;;;;;;;15.02;29.71;98334.16;5035642;28;20057;-88